Terminal Aerodrome Forecast
Issued by NWS

Home | Current Version | Previous Version | Text Only | Print | Product List | Glossary On
Versions: 1 2 3 4 5 6 7 8 9 10 11 12
000
FTUS45 KRIW 272330
TAFCOD
TAF
KCOD 272330Z 2800/2824 29007KT P6SM SCT040 BKN070
     FM280500 36011G17KT P6SM VCSH SCT030 BKN050
     FM280900 35014KT P6SM -RA SCT020 BKN035
     FM281200 35015G24KT 3SM -SN OVC012
     FM281600 35015G25KT P6SM VCSH BKN020
     FM281900 35015KT P6SM BKN040
      AMD LTD TO CLD VIS AND WIND=

USA.gov is the U.S. government's official web portal to all federal, state and local government web resources and services.